Moline, Kansas
Current Conditions -  °F | °C
As of 7:35 PM on Monday 22 Dec 2014 (Local Time) from KIDP Reporting Station
Clear Clear  
Wind Chill:   Ceiling: Unl
Heat Index:   Visibility: 10mi
Dew Point:   Wind: 5mph
Humidity: 87%   Direction: 230°SW
Pressure: 29.61"   Gusts: NA
Location:  37.36°N, 96.3°W
Report Text: KIDP 230135Z AUTO 23004KT 10SM CLR 05/03 A2961 RMK AO2
Loading
Personal Weather Stations






























Interactive Weather Map New forecast layout! Learn more

10-Day Weather Forecast

Advertisements
Track Severe Weather on mobile